Hauptseite
METAR-TAF:

METAR-TAF

Flughäfen :

Militärflugplatz Volkel

Uden, Niederlande

Breite: 51-39N, Länge: 005-42E, Höhe: 22 m

Beobachtung

Neuester Wetterbericht von vor 33 Minuten, um 23:55 UTC
Wind 9 kt aus Ost, variierte zwischen Nordost und Ost/Südost
Temperatur 2°C
Luftfeuchtigkeit 87%
Luftdruck 1009 hPa
Sichtweite 10 km oder mehr
Leicht bewölkt in der Höhe von 9700 ft

METAR: EHVK 202355Z AUTO 09009KT 040V120 9999 FEW097 02/M00 Q1009 BLU

Zeit: 01:28 (00:28 UTC)

Prognose

Neuester Wetterbericht von vor 14 Stunden und 40 Minuten, um 09:48 UTC
Gültige Prognose vom 20 um 10 UTC bis 20 um 22 UTC
Wind 15 kt aus Ost, Böen bis zu 25 kt
Sichtweite 10 km oder mehr
Durchbrochene Bewölkung in der Höhe von 4000 ft
Übergehend zu
vom 20 um 17 UTC bis 20 um 20 UTC
Wind 12 kt aus Ost

TAF: EHVK 200948Z 2010/2022 08015G25KT 9999 BKN040 BECMG 2017/2020 09012KT

Wetterbeobachtungen und Prognosen von mehr als 4000 Flughäfen (METAR und TAF Bericht).

Die verfügbaren Stationen werden durch gelbe und rote Markierungen auf der Karte dargestellt.

Führen Sie die Maus auf sie, um den Namen der Station zu sehen.

Darauf klicken, um die Beobachtung von Wetterbeobachtungen und Prognosen zu sehen.

Um die Karte zu ändern : klicken Sie auf den grünen Tasten mit einem schwarzen Kreuz Zum Vergrößern, auf den grünen Button mit einem Gedankenstrich zu verkleinern, oder auf die grünen Pfeile für benachbarte Karten.


METAR-TAF: